Time;durP1;ratioP1;P1;durP2;ratioP2;P2;SDS_P1;SDS_P2;PMS_P1;PMS_P2;Temp;Humidity;BMP_temperature;BMP_pressure;BME280_temperature;BME280_humidity;BME280_pressure;Samples;Min_cycle;Max_cycle;Signal;HPM_P1;HPM_P2
2023/05/03 00:01:03;;;;;;;1.40;0.75;;;21.30;56.70;;;;;;4974606;28;20194;-59
2023/05/03 00:03:34;;;;;;;1.23;0.82;;;21.30;56.80;;;;;;4973048;28;20186;-59
2023/05/03 00:06:13;;;;;;;2.85;1.20;;;21.30;56.80;;;;;;4965844;28;20222;-59
2023/05/03 00:08:46;;;;;;;1.90;0.95;;;21.30;56.80;;;;;;4952206;28;20211;-59
2023/05/03 00:11:16;;;;;;;1.65;1.00;;;21.30;56.80;;;;;;4952399;28;20198;-59
2023/05/03 00:13:47;;;;;;;1.75;0.80;;;21.30;56.80;;;;;;4952303;28;20281;-59
2023/05/03 00:16:18;;;;;;;1.73;1.13;;;21.30;56.80;;;;;;4952618;28;20194;-59
2023/05/03 00:18:48;;;;;;;1.05;0.70;;;21.30;56.80;;;;;;4971441;28;20208;-59
2023/05/03 00:21:19;;;;;;;2.42;0.93;;;21.40;56.90;;;;;;4971856;28;20257;-60
2023/05/03 00:23:51;;;;;;;1.10;1.00;;;21.40;56.90;;;;;;4977385;28;20202;-61
2023/05/03 00:26:22;;;;;;;2.25;1.00;;;21.40;56.80;;;;;;4960395;28;20234;-60
2023/05/03 00:28:53;;;;;;;1.38;0.90;;;21.40;56.80;;;;;;4951900;28;20250;-60
2023/05/03 00:31:24;;;;;;;1.98;0.93;;;21.40;56.80;;;;;;4952222;28;20685;-60
2023/05/03 00:33:54;;;;;;;2.10;1.02;;;21.40;56.80;;;;;;4952614;28;20206;-60
2023/05/03 00:36:26;;;;;;;1.55;0.90;;;21.40;56.80;;;;;;4952179;28;20202;-60
2023/05/03 00:38:59;;;;;;;2.75;1.00;;;21.40;56.80;;;;;;4952071;28;20219;-60
2023/05/03 00:41:30;;;;;;;3.53;1.20;;;21.40;56.70;;;;;;4951611;28;20550;-61
2023/05/03 00:44:01;;;;;;;2.28;1.00;;;21.40;56.80;;;;;;4952115;28;20555;-59
2023/05/03 00:46:32;;;;;;;1.48;0.90;;;21.40;56.80;;;;;;4951753;28;20223;-59
2023/05/03 00:49:03;;;;;;;1.50;0.80;;;21.40;56.80;;;;;;4952898;28;20242;-59
2023/05/03 00:51:34;;;;;;;2.13;0.98;;;21.50;56.80;;;;;;4959353;28;20614;-59
2023/05/03 00:54:07;;;;;;;2.50;0.90;;;21.50;56.80;;;;;;4963576;28;20285;-60
2023/05/03 00:56:39;;;;;;;1.92;0.95;;;21.50;56.80;;;;;;4970287;28;20202;-60
2023/05/03 00:59:09;;;;;;;2.45;1.10;;;21.50;56.80;;;;;;4951372;28;20223;-60
2023/05/03 01:01:40;;;;;;;2.08;0.90;;;21.50;56.80;;;;;;4951838;28;20206;-60
2023/05/03 01:04:11;;;;;;;1.52;0.90;;;21.50;56.80;;;;;;4951780;28;20250;-60
2023/05/03 01:06:45;;;;;;;1.42;0.73;;;21.50;56.80;;;;;;4951101;28;20234;-60
2023/05/03 01:09:23;;;;;;;2.80;1.13;;;21.50;56.70;;;;;;4964601;28;20276;-60
2023/05/03 01:12:06;;;;;;;1.90;0.90;;;21.50;56.80;;;;;;4973609;28;20276;-60
2023/05/03 01:14:54;;;;;;;1.25;0.85;;;21.50;56.70;;;;;;4974944;28;20202;-60
2023/05/03 01:17:30;;;;;;;1.33;0.80;;;21.60;56.80;;;;;;4974049;28;20260;-59
2023/05/03 01:20:07;;;;;;;2.10;0.90;;;21.60;56.80;;;;;;4955645;28;20233;-59
2023/05/03 01:22:48;;;;;;;1.25;0.75;;;21.60;56.80;;;;;;4955125;28;20302;-60
2023/05/03 01:25:20;;;;;;;1.65;0.90;;;21.60;56.80;;;;;;4956282;28;20203;-60
2023/05/03 01:27:51;;;;;;;2.38;1.13;;;21.60;56.80;;;;;;4955365;28;20237;-60
2023/05/03 01:30:25;;;;;;;2.15;1.05;;;21.60;56.80;;;;;;4966044;28;20241;-60
2023/05/03 01:33:02;;;;;;;1.95;1.00;;;21.60;56.80;;;;;;4964433;28;20333;-60
2023/05/03 01:35:38;;;;;;;1.58;0.80;;;21.60;56.80;;;;;;4955050;28;20241;-60
2023/05/03 01:38:09;;;;;;;1.45;1.02;;;21.60;56.80;;;;;;4964369;28;20608;-60
2023/05/03 01:40:48;;;;;;;2.33;1.00;;;21.70;56.80;;;;;;4973605;28;20229;-61
2023/05/03 01:43:20;;;;;;;3.75;0.90;;;21.70;56.80;;;;;;4973864;28;20210;-60
2023/05/03 01:45:51;;;;;;;1.83;0.90;;;21.70;56.90;;;;;;4976706;28;20190;-60
2023/05/03 01:48:22;;;;;;;1.90;0.60;;;21.70;56.80;;;;;;4993580;28;20671;-61
2023/05/03 01:50:53;;;;;;;1.58;0.73;;;21.70;56.80;;;;;;4992867;28;20217;-60
2023/05/03 01:53:24;;;;;;;1.08;0.88;;;21.70;56.80;;;;;;4983280;28;20228;-61
2023/05/03 01:55:56;;;;;;;1.75;0.60;;;21.70;56.80;;;;;;4973600;28;20199;-60
2023/05/03 01:58:27;;;;;;;1.23;0.68;;;21.70;56.70;;;;;;4974041;28;20233;-59
2023/05/03 02:00:58;;;;;;;2.25;0.80;;;21.80;56.80;;;;;;4954445;28;20203;-60
2023/05/03 02:03:31;;;;;;;1.98;0.70;;;21.80;56.70;;;;;;4954510;28;20206;-59
2023/05/03 02:06:02;;;;;;;0.85;0.50;;;21.80;56.70;;;;;;4970918;28;20194;-60
2023/05/03 02:08:33;;;;;;;0.65;0.52;;;21.80;56.70;;;;;;4991934;28;20555;-60
2023/05/03 02:11:05;;;;;;;1.27;0.60;;;21.80;56.70;;;;;;4993359;28;20205;-60
2023/05/03 02:13:36;;;;;;;1.00;0.68;;;21.90;56.70;;;;;;4993840;28;20200;-61
2023/05/03 02:16:08;;;;;;;1.83;0.75;;;21.90;56.50;;;;;;4969529;28;20207;-60
2023/05/03 02:18:38;;;;;;;1.52;0.80;;;21.90;56.20;;;;;;4954246;28;20721;-60
2023/05/03 02:21:10;;;;;;;0.93;0.50;;;21.90;56.30;;;;;;4969767;28;20650;-60
2023/05/03 02:23:41;;;;;;;1.42;0.55;;;22.00;56.40;;;;;;4973178;28;20273;-60
2023/05/03 02:26:13;;;;;;;0.85;0.40;;;22.00;56.30;;;;;;4968776;28;20213;-60
2023/05/03 02:28:44;;;;;;;1.40;0.80;;;22.00;56.40;;;;;;4972211;28;20256;-60
2023/05/03 02:31:15;;;;;;;0.82;0.50;;;22.00;56.30;;;;;;4972054;28;20629;-59
2023/05/03 02:33:45;;;;;;;0.85;0.50;;;22.10;56.40;;;;;;4962190;28;20207;-59
2023/05/03 02:36:16;;;;;;;0.70;0.60;;;22.10;56.40;;;;;;4962561;28;20207;-59
2023/05/03 02:38:47;;;;;;;0.70;0.47;;;22.10;56.30;;;;;;4953268;28;20253;-59
2023/05/03 02:41:19;;;;;;;0.60;0.60;;;22.10;56.30;;;;;;4963218;28;20206;-59
2023/05/03 02:43:50;;;;;;;1.50;0.77;;;22.10;56.30;;;;;;4961645;28;20199;-60
2023/05/03 02:46:21;;;;;;;0.90;0.50;;;22.10;56.30;;;;;;4953495;28;20210;-59
2023/05/03 02:48:51;;;;;;;1.02;0.50;;;22.20;56.30;;;;;;4953246;28;20246;-59
2023/05/03 02:51:22;;;;;;;1.20;0.60;;;22.20;56.30;;;;;;4963429;28;20257;-59
2023/05/03 02:53:52;;;;;;;2.38;0.50;;;22.20;56.30;;;;;;4973165;28;20202;-59
2023/05/03 02:56:26;;;;;;;1.77;0.70;;;22.20;56.40;;;;;;4972230;28;20198;-60
2023/05/03 02:58:57;;;;;;;0.80;0.40;;;22.20;56.30;;;;;;4959034;28;20722;-60
2023/05/03 03:01:28;;;;;;;0.70;0.50;;;22.20;56.30;;;;;;4964813;28;20202;-60
2023/05/03 03:03:59;;;;;;;0.95;0.50;;;22.30;56.30;;;;;;4973024;28;20206;-60
2023/05/03 03:06:30;;;;;;;0.50;0.40;;;22.30;56.30;;;;;;4967722;28;20207;-60
2023/05/03 03:09:00;;;;;;;1.27;0.50;;;22.30;56.30;;;;;;4952876;28;20301;-60
2023/05/03 03:11:33;;;;;;;1.15;0.43;;;22.30;56.40;;;;;;4953185;28;20203;-60
2023/05/03 03:14:04;;;;;;;1.02;0.40;;;22.30;56.30;;;;;;4952862;28;20203;-60
2023/05/03 03:16:34;;;;;;;0.80;0.50;;;22.30;56.30;;;;;;4966455;28;20233;-60
2023/05/03 03:19:05;;;;;;;0.57;0.40;;;22.40;56.40;;;;;;4972362;28;20229;-59
2023/05/03 03:21:36;;;;;;;0.55;0.40;;;22.40;56.30;;;;;;4959814;28;20207;-60
2023/05/03 03:24:07;;;;;;;0.77;0.40;;;22.40;56.30;;;;;;4953852;28;20239;-60
2023/05/03 03:26:39;;;;;;;1.33;0.50;;;22.40;56.30;;;;;;4952650;28;20203;-60
2023/05/03 03:29:10;;;;;;;0.40;0.38;;;22.40;56.30;;;;;;4952372;28;20222;-59
2023/05/03 03:31:41;;;;;;;1.52;0.47;;;22.40;56.30;;;;;;4953554;28;20242;-59
2023/05/03 03:34:13;;;;;;;0.63;0.50;;;22.50;56.40;;;;;;4952195;28;20206;-59
2023/05/03 03:36:44;;;;;;;1.00;0.47;;;22.40;56.30;;;;;;4953076;28;20202;-59
2023/05/03 03:39:15;;;;;;;1.05;0.60;;;22.50;56.30;;;;;;4952301;28;20721;-59
2023/05/03 03:41:47;;;;;;;2.00;0.50;;;22.50;56.20;;;;;;4966559;28;20213;-60
2023/05/03 03:44:18;;;;;;;0.40;0.40;;;22.50;56.80;;;;;;4973280;28;20673;-60
2023/05/03 03:46:48;;;;;;;0.95;0.40;;;22.50;56.10;;;;;;4973336;28;20214;-59
2023/05/03 03:49:19;;;;;;;1.58;0.50;;;22.50;56.10;;;;;;4972969;28;20581;-59
2023/05/03 03:51:50;;;;;;;1.27;0.47;;;22.50;56.00;;;;;;4972788;28;20540;-59
2023/05/03 03:54:20;;;;;;;0.88;0.60;;;22.50;56.10;;;;;;4972122;28;20206;-59
2023/05/03 03:56:53;;;;;;;0.77;0.47;;;22.60;56.10;;;;;;4972335;28;20202;-59
2023/05/03 03:59:23;;;;;;;0.65;0.40;;;22.60;56.10;;;;;;4972396;28;20257;-60
2023/05/03 04:01:54;;;;;;;0.85;0.65;;;22.60;56.10;;;;;;4955636;28;20277;-60
2023/05/03 04:04:28;;;;;;;0.95;0.40;;;22.60;56.10;;;;;;4952821;28;20206;-60
2023/05/03 04:06:58;;;;;;;0.63;0.50;;;22.60;56.10;;;;;;4972358;28;20229;-59
2023/05/03 04:09:29;;;;;;;0.60;0.45;;;22.60;56.10;;;;;;4973169;28;20253;-60
2023/05/03 04:12:02;;;;;;;0.28;0.28;;;22.60;56.10;;;;;;4973783;28;20196;-60
2023/05/03 04:14:33;;;;;;;0.47;0.40;;;22.60;56.10;;;;;;4991552;28;20197;-60
2023/05/03 04:17:03;;;;;;;1.25;0.30;;;22.60;56.00;;;;;;4985763;28;20688;-60
2023/05/03 04:19:34;;;;;;;0.45;0.30;;;22.60;56.00;;;;;;4972097;28;20222;-61
2023/05/03 04:22:04;;;;;;;0.75;0.43;;;22.60;56.00;;;;;;4968434;28;20213;-60
2023/05/03 04:24:38;;;;;;;0.82;0.43;;;22.60;55.90;;;;;;4966811;28;20199;-60
2023/05/03 04:27:13;;;;;;;0.55;0.40;;;22.60;55.90;;;;;;4972171;28;20229;-60
2023/05/03 04:29:44;;;;;;;0.40;0.40;;;22.60;55.90;;;;;;4971854;28;20221;-59
2023/05/03 04:32:15;;;;;;;0.68;0.40;;;22.60;55.80;;;;;;4970686;28;20202;-59
2023/05/03 04:34:46;;;;;;;0.93;0.50;;;22.70;55.80;;;;;;4971119;28;20204;-59
2023/05/03 04:37:17;;;;;;;0.70;0.50;;;22.70;55.80;;;;;;4952194;28;20199;-60
2023/05/03 04:39:48;;;;;;;0.90;0.57;;;22.70;55.80;;;;;;4953038;28;20254;-60
2023/05/03 04:42:20;;;;;;;0.88;0.30;;;22.70;55.90;;;;;;4957646;28;20201;-60
2023/05/03 04:44:51;;;;;;;0.77;0.60;;;22.70;55.90;;;;;;4960914;28;20206;-59
2023/05/03 04:47:22;;;;;;;0.45;0.40;;;22.70;55.90;;;;;;4955136;28;20250;-59
2023/05/03 04:49:53;;;;;;;0.47;0.40;;;22.70;55.90;;;;;;4973108;28;20264;-60
2023/05/03 04:52:23;;;;;;;0.90;0.52;;;22.70;55.90;;;;;;4975344;28;20202;-59
2023/05/03 04:54:54;;;;;;;0.52;0.47;;;22.70;55.80;;;;;;4974672;28;20675;-60
2023/05/03 04:57:26;;;;;;;0.88;0.40;;;22.70;55.80;;;;;;4975460;28;20697;-60
2023/05/03 04:59:57;;;;;;;1.05;0.50;;;22.70;55.80;;;;;;4968284;28;20254;-60
2023/05/03 05:02:28;;;;;;;0.70;0.50;;;22.70;55.90;;;;;;4955904;28;20202;-60
2023/05/03 05:04:58;;;;;;;0.80;0.40;;;22.70;55.90;;;;;;4955445;28;20222;-60
2023/05/03 05:07:33;;;;;;;0.90;0.60;;;22.70;55.80;;;;;;4956134;28;20234;-56
2023/05/03 05:10:03;;;;;;;0.57;0.40;;;22.70;55.80;;;;;;4971991;28;20225;-60
2023/05/03 05:12:36;;;;;;;1.52;0.57;;;22.70;55.80;;;;;;4974667;28;20206;-59
2023/05/03 05:15:07;;;;;;;1.45;0.60;;;22.70;55.80;;;;;;4974202;28;20269;-60
2023/05/03 05:17:38;;;;;;;0.75;0.52;;;22.70;55.80;;;;;;4975144;28;20210;-60
2023/05/03 05:20:11;;;;;;;1.73;0.68;;;22.70;55.80;;;;;;4958251;28;20289;-60
2023/05/03 05:22:41;;;;;;;0.88;0.57;;;22.70;55.80;;;;;;4954408;28;20203;-60
2023/05/03 05:25:12;;;;;;;0.47;0.43;;;22.70;55.80;;;;;;4955350;28;20691;-60
2023/05/03 05:27:45;;;;;;;0.63;0.40;;;22.70;55.80;;;;;;4954526;28;20290;-60
2023/05/03 05:30:16;;;;;;;0.70;0.45;;;22.70;55.80;;;;;;4954636;28;20229;-60
2023/05/03 05:32:46;;;;;;;0.40;0.40;;;22.70;55.80;;;;;;4964744;28;20282;-60
2023/05/03 05:35:18;;;;;;;0.93;0.60;;;22.70;55.80;;;;;;4954558;28;20203;-60
2023/05/03 05:37:49;;;;;;;2.15;0.70;;;22.70;55.70;;;;;;4955604;28;20199;-60
2023/05/03 05:40:20;;;;;;;2.58;0.93;;;22.70;55.40;;;;;;4955413;28;20278;-60
2023/05/03 05:42:52;;;;;;;1.83;0.60;;;22.70;55.30;;;;;;4955240;28;20203;-60
2023/05/03 05:45:23;;;;;;;0.70;0.60;;;22.70;55.40;;;;;;4988882;28;20197;-60
2023/05/03 05:47:53;;;;;;;1.38;0.70;;;22.70;55.40;;;;;;4994152;28;20229;-60
2023/05/03 05:50:24;;;;;;;1.98;0.70;;;22.70;55.40;;;;;;4993292;28;20221;-60
2023/05/03 05:52:55;;;;;;;1.27;0.70;;;22.70;55.40;;;;;;4992237;28;20201;-60
2023/05/03 05:55:26;;;;;;;2.20;0.50;;;22.70;55.40;;;;;;4973695;28;20198;-60
2023/05/03 05:57:58;;;;;;;1.42;0.60;;;22.70;55.50;;;;;;4973826;28;20297;-60
2023/05/03 06:00:29;;;;;;;1.05;0.70;;;22.70;55.50;;;;;;4975374;28;20229;-60
2023/05/03 06:03:00;;;;;;;1.08;0.52;;;22.70;55.40;;;;;;4954909;28;20190;-60
2023/05/03 06:05:30;;;;;;;1.73;0.80;;;22.70;55.50;;;;;;4972408;28;20871;-60
2023/05/03 06:08:01;;;;;;;1.52;0.50;;;22.70;55.40;;;;;;4996656;23;20399;-52
2023/05/03 06:10:32;;;;;;;0.95;0.57;;;22.70;55.50;;;;;;4987853;28;20218;-50
2023/05/03 06:13:04;;;;;;;2.42;0.80;;;22.70;55.50;;;;;;4993129;28;20605;-49
2023/05/03 06:15:35;;;;;;;0.73;0.55;;;22.60;55.40;;;;;;4976458;28;20285;-53
2023/05/03 06:18:05;;;;;;;0.80;0.50;;;22.70;55.40;;;;;;4974484;28;20210;-51
2023/05/03 06:20:37;;;;;;;1.05;0.60;;;22.70;55.40;;;;;;4973940;28;20222;-50
2023/05/03 06:23:07;;;;;;;1.33;0.52;;;22.70;55.40;;;;;;4977189;28;20240;-53
2023/05/03 06:25:38;;;;;;;0.80;0.47;;;22.70;55.40;;;;;;4983016;28;20207;-53
2023/05/03 06:28:10;;;;;;;1.15;0.68;;;22.70;55.40;;;;;;4991687;28;20751;-51
2023/05/03 06:30:41;;;;;;;0.57;0.40;;;22.70;55.50;;;;;;4992917;28;20591;-51
2023/05/03 06:33:14;;;;;;;1.15;0.55;;;22.70;55.50;;;;;;4992530;28;20610;-50
2023/05/03 06:35:45;;;;;;;0.65;0.57;;;22.60;55.50;;;;;;4992428;28;20233;-49
2023/05/03 06:38:16;;;;;;;2.78;0.80;;;22.70;55.50;;;;;;4993159;28;20201;-50
2023/05/03 06:40:49;;;;;;;1.13;0.50;;;22.70;55.50;;;;;;4992285;28;20224;-50
2023/05/03 06:43:21;;;;;;;1.00;0.50;;;22.70;55.50;;;;;;4993273;28;20223;-50
2023/05/03 06:45:54;;;;;;;1.30;0.60;;;22.60;55.40;;;;;;4992541;28;20209;-52
2023/05/03 06:48:25;;;;;;;1.75;0.70;;;22.60;55.40;;;;;;4984009;28;20226;-50
2023/05/03 06:50:56;;;;;;;1.23;0.47;;;22.60;55.50;;;;;;4991756;28;20222;-52
2023/05/03 06:53:27;;;;;;;0.73;0.50;;;22.60;55.40;;;;;;4992104;28;20205;-54
2023/05/03 06:55:58;;;;;;;0.85;0.60;;;22.60;55.40;;;;;;4992590;28;20208;-55
2023/05/03 06:58:30;;;;;;;1.05;0.73;;;22.70;55.50;;;;;;4976198;28;20290;-53
2023/05/03 07:01:01;;;;;;;1.27;0.45;;;22.60;55.40;;;;;;4972300;28;20209;-55
2023/05/03 07:03:32;;;;;;;1.83;0.50;;;22.60;55.40;;;;;;4982125;28;20198;-54
2023/05/03 07:06:03;;;;;;;0.98;0.55;;;22.60;55.50;;;;;;4992061;28;20201;-56
2023/05/03 07:08:33;;;;;;;1.65;0.80;;;22.60;55.40;;;;;;4992533;28;20225;-55
2023/05/03 07:11:04;;;;;;;1.65;0.70;;;22.60;56.00;;;;;;4974552;28;20202;-56
2023/05/03 07:13:37;;;;;;;1.23;0.65;;;22.60;55.50;;;;;;4972589;28;20226;-53
2023/05/03 07:16:08;;;;;;;1.20;0.52;;;22.60;55.50;;;;;;4972974;28;20209;-52
2023/05/03 07:18:38;;;;;;;0.60;0.50;;;22.60;55.50;;;;;;4971797;28;20209;-52
2023/05/03 07:21:09;;;;;;;1.17;0.70;;;22.60;55.50;;;;;;4972520;28;20198;-54
2023/05/03 07:23:40;;;;;;;0.95;0.70;;;22.60;55.50;;;;;;4976815;28;20202;-50
2023/05/03 07:26:10;;;;;;;1.00;0.60;;;22.60;55.50;;;;;;4990151;28;20194;-51
2023/05/03 07:28:43;;;;;;;1.13;0.65;;;22.60;56.00;;;;;;4991573;28;20225;-52
2023/05/03 07:31:13;;;;;;;0.70;0.60;;;22.60;55.40;;;;;;4991611;28;20201;-52
2023/05/03 07:33:44;;;;;;;0.95;0.47;;;22.60;55.40;;;;;;4992430;28;20224;-50
2023/05/03 07:36:15;;;;;;;1.10;0.63;;;22.60;55.50;;;;;;4991474;28;20649;-49
2023/05/03 07:38:45;;;;;;;0.63;0.50;;;22.60;55.50;;;;;;4992522;28;20247;-48
2023/05/03 07:41:16;;;;;;;1.55;0.50;;;22.60;55.40;;;;;;4992250;28;20208;-51
2023/05/03 07:43:48;;;;;;;0.80;0.50;;;22.60;55.40;;;;;;4992081;28;20546;-48
2023/05/03 07:46:19;;;;;;;1.00;0.70;;;22.60;55.40;;;;;;4991844;28;20252;-49
2023/05/03 07:48:50;;;;;;;1.25;0.52;;;22.60;55.40;;;;;;4993869;28;20213;-48
2023/05/03 07:51:20;;;;;;;1.10;0.65;;;22.60;55.30;;;;;;4991166;28;20201;-50
2023/05/03 07:53:51;;;;;;;0.60;0.55;;;22.60;55.40;;;;;;4991731;28;20202;-48
2023/05/03 07:56:22;;;;;;;0.80;0.50;;;22.60;55.40;;;;;;4991788;28;20614;-52
2023/05/03 07:58:54;;;;;;;1.73;0.60;;;22.60;55.40;;;;;;4992011;28;20268;-48
2023/05/03 08:01:25;;;;;;;1.23;0.60;;;22.50;55.30;;;;;;4991915;28;20558;-49
2023/05/03 08:03:57;;;;;;;0.88;0.77;;;22.60;55.30;;;;;;5004882;28;20193;-47
2023/05/03 08:06:27;;;;;;;1.00;0.57;;;22.50;55.30;;;;;;5011235;28;20204;-52
2023/05/03 08:08:58;;;;;;;0.70;0.50;;;22.60;55.30;;;;;;5008651;22;20311;-60
2023/05/03 08:11:30;;;;;;;1.95;0.60;;;22.50;55.20;;;;;;4993609;28;20193;-61
2023/05/03 08:14:03;;;;;;;0.98;0.63;;;22.50;55.10;;;;;;5011266;28;20208;-61
2023/05/03 08:16:33;;;;;;;1.05;0.50;;;22.50;55.10;;;;;;5011062;28;20197;-61
2023/05/03 08:19:04;;;;;;;1.17;0.50;;;22.50;55.20;;;;;;5011196;28;20220;-60
2023/05/03 08:21:35;;;;;;;0.60;0.40;;;22.50;55.20;;;;;;5014523;28;20228;-61
2023/05/03 08:24:07;;;;;;;1.05;0.70;;;22.50;55.10;;;;;;5015182;28;20618;-60
2023/05/03 08:26:38;;;;;;;1.30;0.73;;;22.50;55.00;;;;;;5015434;28;20200;-60
2023/05/03 08:29:10;;;;;;;1.67;0.60;;;22.50;55.10;;;;;;5015029;28;20692;-60
2023/05/03 08:31:41;;;;;;;1.05;0.63;;;22.50;55.10;;;;;;5014151;28;20205;-60
2023/05/03 08:34:12;;;;;;;1.17;0.60;;;22.50;55.00;;;;;;5013426;28;20287;-60
2023/05/03 08:36:42;;;;;;;1.17;0.63;;;22.50;55.00;;;;;;5015159;28;20197;-60
2023/05/03 08:39:14;;;;;;;0.88;0.60;;;22.50;55.00;;;;;;5015197;28;20224;-60
2023/05/03 08:41:45;;;;;;;0.93;0.50;;;22.50;55.00;;;;;;5015328;28;20720;-59
2023/05/03 08:44:22;;;;;;;3.03;0.80;;;22.50;54.90;;;;;;4995993;28;20267;-59
2023/05/03 08:46:53;;;;;;;2.40;0.80;;;22.50;54.90;;;;;;4995090;28;20233;-61
2023/05/03 08:49:24;;;;;;;1.75;0.82;;;22.50;54.90;;;;;;4995416;28;20786;-60
2023/05/03 08:51:56;;;;;;;1.83;0.75;;;22.50;54.90;;;;;;4995305;28;20202;-60
2023/05/03 08:54:27;;;;;;;3.67;0.90;;;22.50;54.90;;;;;;5006218;28;20262;-60
2023/05/03 08:56:58;;;;;;;1.88;0.70;;;22.50;54.80;;;;;;4993710;28;20193;-60
2023/05/03 08:59:30;;;;;;;1.30;0.68;;;22.50;54.80;;;;;;4995200;28;20217;-60
2023/05/03 09:02:01;;;;;;;2.72;0.80;;;22.50;54.90;;;;;;4995244;28;20212;-60
2023/05/03 09:04:36;;;;;;;0.80;0.40;;;22.50;54.90;;;;;;4995473;28;20285;-60
2023/05/03 09:07:14;;;;;;;0.80;0.70;;;22.50;54.80;;;;;;4989066;28;20200;-60
2023/05/03 09:09:45;;;;;;;1.40;0.57;;;22.50;54.80;;;;;;4991815;28;20279;-61
2023/05/03 09:12:34;;;;;;;0.88;0.68;;;22.50;54.80;;;;;;4990675;28;20194;-61
2023/05/03 09:15:07;;;;;;;1.42;0.80;;;22.50;54.70;;;;;;4980377;28;20204;-61
2023/05/03 09:17:38;;;;;;;1.17;0.60;;;22.50;54.80;;;;;;4993572;28;20264;-61
2023/05/03 09:20:10;;;;;;;1.83;0.70;;;22.50;54.80;;;;;;4994327;28;20226;-61
2023/05/03 09:22:53;;;;;;;3.13;0.57;;;22.50;54.80;;;;;;4993991;28;20224;-61
2023/05/03 09:25:23;;;;;;;1.15;0.70;;;22.50;54.80;;;;;;4983059;28;20273;-61
2023/05/03 09:28:03;;;;;;;1.80;0.70;;;22.50;54.80;;;;;;4974741;28;20205;-61
2023/05/03 09:30:36;;;;;;;0.80;0.40;;;22.50;54.80;;;;;;4974878;28;20233;-61
2023/05/03 09:33:07;;;;;;;1.17;0.60;;;22.50;54.80;;;;;;4973032;28;20605;-61
2023/05/03 09:35:37;;;;;;;0.88;0.60;;;22.50;54.90;;;;;;4974705;28;20202;-61
2023/05/03 09:38:08;;;;;;;1.25;0.52;;;22.50;55.50;;;;;;4974292;28;20202;-61
2023/05/03 09:40:49;;;;;;;0.57;0.47;;;22.50;54.80;;;;;;4983858;28;20228;-60
2023/05/03 09:43:20;;;;;;;1.75;0.80;;;22.50;54.70;;;;;;4991222;28;20590;-60
2023/05/03 09:45:52;;;;;;;1.60;0.55;;;22.50;54.70;;;;;;5000393;28;20672;-60
2023/05/03 09:48:26;;;;;;;2.10;0.60;;;22.50;54.70;;;;;;4993876;28;20205;-60
2023/05/03 09:50:57;;;;;;;1.27;0.70;;;22.50;54.60;;;;;;4993387;28;20229;-61
2023/05/03 09:53:29;;;;;;;1.23;0.60;;;22.50;54.50;;;;;;4999856;28;20238;-61
2023/05/03 09:56:01;;;;;;;2.05;0.70;;;22.40;54.60;;;;;;5012610;28;20208;-61
2023/05/03 09:58:33;;;;;;;0.75;0.60;;;22.40;54.60;;;;;;5013236;28;20201;-62
2023/05/03 10:01:06;;;;;;;1.10;0.50;;;22.40;54.60;;;;;;5001901;28;20197;-61
2023/05/03 10:03:42;;;;;;;1.70;0.70;;;22.40;54.70;;;;;;4995975;28;20204;-61
2023/05/03 10:06:24;;;;;;;2.38;0.60;;;22.40;54.70;;;;;;5004537;28;20243;-61
2023/05/03 10:09:00;;;;;;;0.75;0.50;;;22.40;54.70;;;;;;5013314;28;20221;-61
2023/05/03 10:11:31;;;;;;;1.92;0.70;;;22.40;54.80;;;;;;5013647;28;20200;-62
2023/05/03 10:14:02;;;;;;;1.15;0.50;;;22.40;54.70;;;;;;5012381;28;20231;-61
2023/05/03 10:16:38;;;;;;;1.00;0.50;;;22.40;54.70;;;;;;5013120;28;20209;-61
2023/05/03 10:19:14;;;;;;;2.08;0.50;;;22.40;54.80;;;;;;4996221;28;20220;-61
2023/05/03 10:22:07;;;;;;;0.68;0.50;;;22.40;54.80;;;;;;4993010;28;20205;-61
2023/05/03 10:24:38;;;;;;;1.08;0.50;;;22.40;54.60;;;;;;5004436;28;20209;-61
2023/05/03 10:27:13;;;;;;;1.73;0.60;;;22.40;54.60;;;;;;4992853;28;20208;-61
2023/05/03 10:29:56;;;;;;;0.75;0.60;;;22.40;54.60;;;;;;4993147;28;20228;-61
2023/05/03 10:32:39;;;;;;;1.27;0.65;;;22.40;54.50;;;;;;4993435;28;20197;-61
2023/05/03 10:35:15;;;;;;;0.93;0.50;;;22.40;54.50;;;;;;4993311;28;20308;-61
2023/05/03 10:37:47;;;;;;;0.75;0.50;;;22.30;54.40;;;;;;4988030;28;20186;-62
2023/05/03 10:40:21;;;;;;;0.65;0.45;;;22.30;55.00;;;;;;4974209;28;20226;-62
2023/05/03 10:42:58;;;;;;;1.05;0.70;;;22.30;54.50;;;;;;4972521;28;20561;-61
2023/05/03 10:45:29;;;;;;;1.33;0.70;;;22.30;54.60;;;;;;4973339;28;20206;-61
2023/05/03 10:48:23;;;;;;;1.10;0.50;;;22.30;54.60;;;;;;4972916;28;20662;-60
2023/05/03 10:50:53;;;;;;;1.95;0.52;;;22.30;54.70;;;;;;4973160;28;20237;-61
2023/05/03 10:53:42;;;;;;;0.65;0.43;;;22.30;54.60;;;;;;4987788;28;20196;-61
2023/05/03 10:56:14;;;;;;;1.30;0.60;;;22.30;54.70;;;;;;5012283;28;20239;-61
2023/05/03 10:58:46;;;;;;;0.50;0.40;;;22.30;54.70;;;;;;5012026;28;20201;-61
2023/05/03 11:01:18;;;;;;;0.63;0.43;;;22.30;54.80;;;;;;5012348;28;20197;-60
2023/05/03 11:04:00;;;;;;;1.70;0.63;;;22.30;54.80;;;;;;5012545;28;20208;-61
2023/05/03 11:06:33;;;;;;;1.15;0.70;;;22.30;54.80;;;;;;5012234;28;20232;-61
2023/05/03 12:10:21;;;;;;;0.45;0.30;;;22.10;54.40;;;;;;5004038;22;20245;-51
2023/05/03 12:12:57;;;;;;;0.82;0.30;;;22.10;54.60;;;;;;4961507;28;20198;-49
2023/05/03 12:15:32;;;;;;;0.35;0.35;;;22.10;54.60;;;;;;4961978;28;20228;-50
2023/05/03 12:18:04;;;;;;;0.55;0.40;;;22.10;54.70;;;;;;4960149;28;20198;-52
2023/05/03 12:20:35;;;;;;;0.98;0.50;;;22.10;54.70;;;;;;4960827;28;20214;-52
2023/05/03 12:23:06;;;;;;;0.50;0.30;;;22.10;54.70;;;;;;4964812;28;20194;-50
2023/05/03 12:25:39;;;;;;;0.70;0.35;;;22.10;54.70;;;;;;4960562;28;20678;-53
2023/05/03 12:28:10;;;;;;;0.35;0.35;;;22.10;54.70;;;;;;4960612;28;20195;-53
2023/05/03 12:30:40;;;;;;;0.40;0.30;;;22.10;54.70;;;;;;4959753;28;20230;-53
2023/05/03 12:33:11;;;;;;;1.52;0.47;;;22.10;54.70;;;;;;4961192;28;20190;-54
2023/05/03 12:35:42;;;;;;;0.50;0.50;;;22.10;54.70;;;;;;4962363;28;20194;-50
2023/05/03 12:38:13;;;;;;;1.55;0.50;;;22.10;54.60;;;;;;4962023;28;20202;-51
2023/05/03 12:40:46;;;;;;;1.05;0.30;;;22.10;54.60;;;;;;4960571;28;20618;-51
2023/05/03 12:43:16;;;;;;;0.85;0.40;;;22.10;54.60;;;;;;4960866;28;20282;-51
2023/05/03 12:45:47;;;;;;;0.77;0.40;;;22.10;54.60;;;;;;4961078;28;20195;-54
2023/05/03 12:48:17;;;;;;;0.93;0.52;;;22.00;54.50;;;;;;4960340;28;20197;-51
2023/05/03 12:50:48;;;;;;;1.00;0.43;;;22.00;54.50;;;;;;4967041;28;20226;-49
2023/05/03 12:53:19;;;;;;;0.40;0.32;;;22.00;54.60;;;;;;4977082;28;20205;-52
2023/05/03 12:55:51;;;;;;;0.32;0.30;;;22.00;54.60;;;;;;4974320;28;20221;-49
2023/05/03 12:58:22;;;;;;;0.40;0.40;;;22.00;54.60;;;;;;4972327;28;20658;-50
2023/05/03 13:00:53;;;;;;;0.45;0.30;;;22.00;54.60;;;;;;4972152;28;20229;-51
2023/05/03 13:03:24;;;;;;;0.30;0.30;;;22.00;54.70;;;;;;4971692;28;20261;-50
2023/05/03 13:05:54;;;;;;;0.70;0.40;;;22.00;54.70;;;;;;4972154;28;20198;-50
2023/05/03 13:08:25;;;;;;;0.50;0.40;;;22.00;54.70;;;;;;4975865;28;20213;-50
2023/05/03 13:10:58;;;;;;;0.50;0.30;;;22.00;54.70;;;;;;4975125;28;20238;-50
2023/05/03 13:13:29;;;;;;;0.60;0.40;;;22.00;54.70;;;;;;4975779;28;20201;-51
2023/05/03 13:16:00;;;;;;;0.30;0.30;;;22.00;54.60;;;;;;4972457;28;20195;-51
2023/05/03 13:18:34;;;;;;;1.02;0.57;;;22.00;54.60;;;;;;4975470;28;20202;-51
2023/05/03 13:21:05;;;;;;;1.75;0.40;;;22.00;54.60;;;;;;4975646;28;20198;-55
2023/05/03 13:23:37;;;;;;;0.40;0.30;;;22.00;54.60;;;;;;4982198;28;20232;-49
2023/05/03 13:26:09;;;;;;;0.30;0.30;;;22.00;54.50;;;;;;4994611;28;20205;-52
2023/05/03 13:28:40;;;;;;;0.63;0.30;;;22.00;54.50;;;;;;4994834;28;20201;-49
2023/05/03 13:31:12;;;;;;;0.43;0.40;;;22.00;54.50;;;;;;4994833;28;20264;-52
2023/05/03 13:33:43;;;;;;;0.45;0.43;;;21.90;54.40;;;;;;4986791;28;20666;-51
2023/05/03 13:36:14;;;;;;;0.32;0.25;;;21.90;54.50;;;;;;4975385;28;20206;-54
2023/05/03 13:38:45;;;;;;;0.60;0.30;;;21.90;54.60;;;;;;4975269;28;20206;-49
2023/05/03 13:41:17;;;;;;;0.20;0.20;;;21.90;54.60;;;;;;4975206;28;20194;-49
2023/05/03 13:43:48;;;;;;;0.32;0.30;;;21.90;54.60;;;;;;4975008;28;20202;-51
2023/05/03 13:46:19;;;;;;;0.30;0.30;;;21.90;54.60;;;;;;4974899;28;20198;-51
2023/05/03 13:48:49;;;;;;;0.65;0.40;;;21.90;54.60;;;;;;4974518;28;20564;-50
2023/05/03 13:51:20;;;;;;;0.45;0.30;;;21.90;54.60;;;;;;4976935;28;20213;-50
2023/05/03 13:53:51;;;;;;;0.90;0.40;;;21.90;54.60;;;;;;4983569;28;20201;-51
2023/05/03 13:56:23;;;;;;;0.57;0.30;;;21.90;54.60;;;;;;4976267;28;20221;-50
2023/05/03 13:58:54;;;;;;;0.45;0.40;;;21.90;54.70;;;;;;4993892;28;21849;-49
2023/05/03 14:01:25;;;;;;;0.77;0.40;;;21.90;54.60;;;;;;4994239;28;20208;-53
2023/05/03 14:03:56;;;;;;;0.30;0.30;;;21.90;54.60;;;;;;4994099;28;20280;-53
2023/05/03 14:06:27;;;;;;;0.43;0.35;;;21.90;54.60;;;;;;4994107;28;20197;-53
2023/05/03 14:08:57;;;;;;;0.60;0.40;;;21.90;54.50;;;;;;4994088;28;20230;-51
2023/05/03 14:11:30;;;;;;;0.30;0.30;;;21.90;54.50;;;;;;4994029;28;20221;-52
2023/05/03 14:14:00;;;;;;;1.48;0.52;;;21.90;54.60;;;;;;4994185;28;20193;-53